sensor_id;sensor_type;location;lat;lon;timestamp;temperature;humidity
19174;DHT22;9719;49.322;8.536;2023-09-19T00:00:41;17.70;99.90
19174;DHT22;9719;49.322;8.536;2023-09-19T00:05:44;17.60;99.90
19174;DHT22;9719;49.322;8.536;2023-09-19T00:10:47;17.60;99.90
19174;DHT22;9719;49.322;8.536;2023-09-19T00:15:49;17.50;99.90
19174;DHT22;9719;49.322;8.536;2023-09-19T00:20:50;17.60;99.90
19174;DHT22;9719;49.322;8.536;2023-09-19T00:25:54;17.50;99.90
19174;DHT22;9719;49.322;8.536;2023-09-19T00:30:59;17.40;99.90
19174;DHT22;9719;49.322;8.536;2023-09-19T00:36:02;17.40;99.90
19174;DHT22;9719;49.322;8.536;2023-09-19T00:41:07;17.50;99.90
19174;DHT22;9719;49.322;8.536;2023-09-19T00:46:09;17.40;99.90
19174;DHT22;9719;49.322;8.536;2023-09-19T00:51:10;17.30;99.90
19174;DHT22;9719;49.322;8.536;2023-09-19T00:56:15;17.40;99.90
19174;DHT22;9719;49.322;8.536;2023-09-19T01:01:19;17.30;99.90
19174;DHT22;9719;49.322;8.536;2023-09-19T01:06:21;17.40;99.90
19174;DHT22;9719;49.322;8.536;2023-09-19T01:11:30;17.50;99.90
19174;DHT22;9719;49.322;8.536;2023-09-19T01:16:38;17.40;99.90
19174;DHT22;9719;49.322;8.536;2023-09-19T01:21:51;17.50;99.90
19174;DHT22;9719;49.322;8.536;2023-09-19T01:27:13;17.40;99.90
19174;DHT22;9719;49.322;8.536;2023-09-19T01:32:21;17.40;99.90
19174;DHT22;9719;49.322;8.536;2023-09-19T01:37:25;17.30;99.90
19174;DHT22;9719;49.322;8.536;2023-09-19T01:42:31;17.40;99.90
19174;DHT22;9719;49.322;8.536;2023-09-19T01:47:41;17.40;99.90
19174;DHT22;9719;49.322;8.536;2023-09-19T01:52:48;17.20;99.90
19174;DHT22;9719;49.322;8.536;2023-09-19T01:57:58;17.30;99.90
19174;DHT22;9719;49.322;8.536;2023-09-19T02:03:04;17.40;99.90
19174;DHT22;9719;49.322;8.536;2023-09-19T02:08:05;17.50;99.90
19174;DHT22;9719;49.322;8.536;2023-09-19T02:13:07;17.40;99.90
19174;DHT22;9719;49.322;8.536;2023-09-19T02:18:10;17.60;99.90
19174;DHT22;9719;49.322;8.536;2023-09-19T02:23:13;17.50;99.90
19174;DHT22;9719;49.322;8.536;2023-09-19T02:28:16;17.60;99.90
19174;DHT22;9719;49.322;8.536;2023-09-19T02:33:19;17.60;99.90
19174;DHT22;9719;49.322;8.536;2023-09-19T02:38:20;17.50;99.90
19174;DHT22;9719;49.322;8.536;2023-09-19T02:43:25;17.60;99.90
19174;DHT22;9719;49.322;8.536;2023-09-19T02:48:28;17.70;99.90
19174;DHT22;9719;49.322;8.536;2023-09-19T02:53:30;17.60;99.90
19174;DHT22;9719;49.322;8.536;2023-09-19T02:58:32;17.70;99.90
19174;DHT22;9719;49.322;8.536;2023-09-19T03:03:37;17.70;99.90
19174;DHT22;9719;49.322;8.536;2023-09-19T03:08:39;17.70;99.90
19174;DHT22;9719;49.322;8.536;2023-09-19T03:13:42;17.60;99.90
19174;DHT22;9719;49.322;8.536;2023-09-19T03:18:47;17.60;99.90
19174;DHT22;9719;49.322;8.536;2023-09-19T03:23:50;17.50;99.90
19174;DHT22;9719;49.322;8.536;2023-09-19T03:28:51;17.50;99.90
19174;DHT22;9719;49.322;8.536;2023-09-19T03:33:54;17.60;99.90
19174;DHT22;9719;49.322;8.536;2023-09-19T03:38:56;17.60;99.90
19174;DHT22;9719;49.322;8.536;2023-09-19T03:43:58;17.60;99.90
19174;DHT22;9719;49.322;8.536;2023-09-19T03:49:01;17.50;99.90
19174;DHT22;9719;49.322;8.536;2023-09-19T03:54:03;17.40;99.90
19174;DHT22;9719;49.322;8.536;2023-09-19T03:59:05;17.50;99.90
19174;DHT22;9719;49.322;8.536;2023-09-19T04:04:10;17.40;99.90
19174;DHT22;9719;49.322;8.536;2023-09-19T04:09:13;17.40;99.90
19174;DHT22;9719;49.322;8.536;2023-09-19T04:14:15;17.30;99.90
19174;DHT22;9719;49.322;8.536;2023-09-19T04:19:18;17.20;99.90
19174;DHT22;9719;49.322;8.536;2023-09-19T04:24:20;17.20;99.90
19174;DHT22;9719;49.322;8.536;2023-09-19T04:29:22;17.20;99.90
19174;DHT22;9719;49.322;8.536;2023-09-19T04:34:25;17.00;99.90
19174;DHT22;9719;49.322;8.536;2023-09-19T04:39:27;16.90;99.90
19174;DHT22;9719;49.322;8.536;2023-09-19T04:44:29;16.70;99.90
19174;DHT22;9719;49.322;8.536;2023-09-19T04:49:32;16.60;99.90
19174;DHT22;9719;49.322;8.536;2023-09-19T04:54:34;16.60;99.90
19174;DHT22;9719;49.322;8.536;2023-09-19T04:59:36;16.60;99.90
19174;DHT22;9719;49.322;8.536;2023-09-19T05:04:39;16.50;99.90
19174;DHT22;9719;49.322;8.536;2023-09-19T05:09:41;16.60;99.90
19174;DHT22;9719;49.322;8.536;2023-09-19T05:14:42;16.70;99.90
19174;DHT22;9719;49.322;8.536;2023-09-19T05:19:46;16.60;99.90
19174;DHT22;9719;49.322;8.536;2023-09-19T05:24:47;16.70;99.90
19174;DHT22;9719;49.322;8.536;2023-09-19T05:29:49;16.90;99.90
19174;DHT22;9719;49.322;8.536;2023-09-19T05:34:54;17.00;99.90
19174;DHT22;9719;49.322;8.536;2023-09-19T05:39:56;17.10;99.90
19174;DHT22;9719;49.322;8.536;2023-09-19T05:44:58;17.00;99.90
19174;DHT22;9719;49.322;8.536;2023-09-19T05:50:02;17.10;99.90
19174;DHT22;9719;49.322;8.536;2023-09-19T05:55:05;17.10;99.90
19174;DHT22;9719;49.322;8.536;2023-09-19T06:00:08;17.10;99.90
19174;DHT22;9719;49.322;8.536;2023-09-19T06:05:12;17.20;99.90
19174;DHT22;9719;49.322;8.536;2023-09-19T06:10:15;17.30;99.90
19174;DHT22;9719;49.322;8.536;2023-09-19T06:15:17;17.30;99.90
19174;DHT22;9719;49.322;8.536;2023-09-19T06:20:23;17.50;99.90
19174;DHT22;9719;49.322;8.536;2023-09-19T06:25:25;17.50;99.90
19174;DHT22;9719;49.322;8.536;2023-09-19T06:30:27;17.60;99.90
19174;DHT22;9719;49.322;8.536;2023-09-19T06:35:32;17.60;99.90
19174;DHT22;9719;49.322;8.536;2023-09-19T06:40:34;17.60;99.90
19174;DHT22;9719;49.322;8.536;2023-09-19T06:45:36;17.70;99.90
19174;DHT22;9719;49.322;8.536;2023-09-19T06:50:39;17.60;99.90
19174;DHT22;9719;49.322;8.536;2023-09-19T06:55:41;17.70;99.90
19174;DHT22;9719;49.322;8.536;2023-09-19T07:00:44;17.60;99.90
19174;DHT22;9719;49.322;8.536;2023-09-19T07:05:47;17.80;99.90
19174;DHT22;9719;49.322;8.536;2023-09-19T07:10:49;17.80;99.90
19174;DHT22;9719;49.322;8.536;2023-09-19T07:15:54;18.10;99.90
19174;DHT22;9719;49.322;8.536;2023-09-19T07:20:58;18.10;99.90
19174;DHT22;9719;49.322;8.536;2023-09-19T07:26:05;18.20;99.90
19174;DHT22;9719;49.322;8.536;2023-09-19T07:31:06;18.20;98.70
19174;DHT22;9719;49.322;8.536;2023-09-19T07:36:12;18.40;99.70
19174;DHT22;9719;49.322;8.536;2023-09-19T07:41:14;18.50;98.70
19174;DHT22;9719;49.322;8.536;2023-09-19T07:46:16;18.60;96.20
19174;DHT22;9719;49.322;8.536;2023-09-19T07:51:19;18.80;93.00
19174;DHT22;9719;49.322;8.536;2023-09-19T07:56:20;18.70;93.20
19174;DHT22;9719;49.322;8.536;2023-09-19T08:01:23;18.80;93.20
19174;DHT22;9719;49.322;8.536;2023-09-19T08:06:26;19.00;90.30
19174;DHT22;9719;49.322;8.536;2023-09-19T08:11:30;19.10;90.30
19174;DHT22;9719;49.322;8.536;2023-09-19T08:16:33;19.20;88.80
19174;DHT22;9719;49.322;8.536;2023-09-19T08:21:36;19.30;87.30
19174;DHT22;9719;49.322;8.536;2023-09-19T08:26:38;19.40;88.10
19174;DHT22;9719;49.322;8.536;2023-09-19T08:31:39;19.60;86.90
19174;DHT22;9719;49.322;8.536;2023-09-19T08:36:42;19.50;87.80
19174;DHT22;9719;49.322;8.536;2023-09-19T08:41:45;19.60;84.30
19174;DHT22;9719;49.322;8.536;2023-09-19T08:46:48;19.50;82.60
19174;DHT22;9719;49.322;8.536;2023-09-19T08:51:56;19.90;83.40
19174;DHT22;9719;49.322;8.536;2023-09-19T08:57:06;19.70;79.30
19174;DHT22;9719;49.322;8.536;2023-09-19T09:02:11;19.50;79.20
19174;DHT22;9719;49.322;8.536;2023-09-19T09:07:15;19.40;80.10
19174;DHT22;9719;49.322;8.536;2023-09-19T09:12:19;19.60;78.70
19174;DHT22;9719;49.322;8.536;2023-09-19T09:17:21;19.70;78.10
19174;DHT22;9719;49.322;8.536;2023-09-19T09:22:24;20.00;77.00
19174;DHT22;9719;49.322;8.536;2023-09-19T09:27:27;20.00;76.60
19174;DHT22;9719;49.322;8.536;2023-09-19T09:32:29;20.00;77.30
19174;DHT22;9719;49.322;8.536;2023-09-19T09:37:35;20.10;74.40
19174;DHT22;9719;49.322;8.536;2023-09-19T09:42:38;20.20;70.10
19174;DHT22;9719;49.322;8.536;2023-09-19T09:47:42;20.60;51.90
19174;DHT22;9719;49.322;8.536;2023-09-19T09:52:51;20.60;50.30
19174;DHT22;9719;49.322;8.536;2023-09-19T09:58:16;20.70;52.00
19174;DHT22;9719;49.322;8.536;2023-09-19T10:03:20;20.80;52.40
19174;DHT22;9719;49.322;8.536;2023-09-19T10:08:24;21.10;70.50
19174;DHT22;9719;49.322;8.536;2023-09-19T10:13:36;20.60;51.10
19174;DHT22;9719;49.322;8.536;2023-09-19T10:18:42;20.70;47.50
19174;DHT22;9719;49.322;8.536;2023-09-19T10:23:46;20.70;50.10
19174;DHT22;9719;49.322;8.536;2023-09-19T10:28:50;20.90;48.50
19174;DHT22;9719;49.322;8.536;2023-09-19T10:33:53;21.00;47.00
19174;DHT22;9719;49.322;8.536;2023-09-19T10:38:59;20.90;64.50
19174;DHT22;9719;49.322;8.536;2023-09-19T10:44:05;21.10;32.30
19174;DHT22;9719;49.322;8.536;2023-09-19T10:49:07;21.00;68.20
19174;DHT22;9719;49.322;8.536;2023-09-19T10:54:16;20.80;44.10
19174;DHT22;9719;49.322;8.536;2023-09-19T10:59:20;20.90;35.90
19174;DHT22;9719;49.322;8.536;2023-09-19T11:04:24;21.10;66.20
19174;DHT22;9719;49.322;8.536;2023-09-19T11:09:43;21.10;42.00
19174;DHT22;9719;49.322;8.536;2023-09-19T11:14:46;21.50;43.40
19174;DHT22;9719;49.322;8.536;2023-09-19T11:20:19;21.50;39.70
19174;DHT22;9719;49.322;8.536;2023-09-19T11:25:43;21.70;41.80
19174;DHT22;9719;49.322;8.536;2023-09-19T11:30:49;21.90;40.60
19174;DHT22;9719;49.322;8.536;2023-09-19T11:36:04;22.40;37.40
19174;DHT22;9719;49.322;8.536;2023-09-19T11:41:37;22.40;38.00
19174;DHT22;9719;49.322;8.536;2023-09-19T11:46:52;22.40;34.30
19174;DHT22;9719;49.322;8.536;2023-09-19T11:51:55;22.60;35.60
19174;DHT22;9719;49.322;8.536;2023-09-19T11:57:00;22.90;32.00
19174;DHT22;9719;49.322;8.536;2023-09-19T12:02:04;22.80;26.20
19174;DHT22;9719;49.322;8.536;2023-09-19T12:07:08;23.00;27.40
19174;DHT22;9719;49.322;8.536;2023-09-19T12:12:21;22.90;30.80
19174;DHT22;9719;49.322;8.536;2023-09-19T12:17:23;23.20;24.40
19174;DHT22;9719;49.322;8.536;2023-09-19T12:22:25;23.90;21.90
19174;DHT22;9719;49.322;8.536;2023-09-19T12:27:28;23.50;22.00
19174;DHT22;9719;49.322;8.536;2023-09-19T12:32:34;23.30;23.90
19174;DHT22;9719;49.322;8.536;2023-09-19T12:37:36;23.20;25.00
19174;DHT22;9719;49.322;8.536;2023-09-19T12:42:39;23.50;26.20
19174;DHT22;9719;49.322;8.536;2023-09-19T12:48:18;23.50;22.80
19174;DHT22;9719;49.322;8.536;2023-09-19T12:53:26;23.60;23.20
19174;DHT22;9719;49.322;8.536;2023-09-19T12:58:32;24.00;25.70
19174;DHT22;9719;49.322;8.536;2023-09-19T13:03:35;23.80;26.30
19174;DHT22;9719;49.322;8.536;2023-09-19T13:08:40;23.50;24.30
19174;DHT22;9719;49.322;8.536;2023-09-19T13:13:45;23.80;26.30
19174;DHT22;9719;49.322;8.536;2023-09-19T13:18:50;23.90;26.30
19174;DHT22;9719;49.322;8.536;2023-09-19T13:23:54;24.10;25.10
19174;DHT22;9719;49.322;8.536;2023-09-19T13:29:01;24.20;23.50
19174;DHT22;9719;49.322;8.536;2023-09-19T13:34:03;24.60;25.50
19174;DHT22;9719;49.322;8.536;2023-09-19T13:39:04;24.20;22.20
19174;DHT22;9719;49.322;8.536;2023-09-19T13:44:10;24.10;52.00
19174;DHT22;9719;49.322;8.536;2023-09-19T13:49:12;24.00;24.80
19174;DHT22;9719;49.322;8.536;2023-09-19T13:54:14;24.20;38.80
19174;DHT22;9719;49.322;8.536;2023-09-19T13:59:17;24.10;53.80
19174;DHT22;9719;49.322;8.536;2023-09-19T14:04:18;23.70;23.70
19174;DHT22;9719;49.322;8.536;2023-09-19T14:09:21;24.10;25.60
19174;DHT22;9719;49.322;8.536;2023-09-19T14:14:25;24.10;23.70
19174;DHT22;9719;49.322;8.536;2023-09-19T14:19:27;24.40;50.60
19174;DHT22;9719;49.322;8.536;2023-09-19T14:24:28;24.40;51.20
19174;DHT22;9719;49.322;8.536;2023-09-19T14:29:31;24.30;53.50
19174;DHT22;9719;49.322;8.536;2023-09-19T14:34:34;24.30;55.20
19174;DHT22;9719;49.322;8.536;2023-09-19T14:39:37;24.00;55.10
19174;DHT22;9719;49.322;8.536;2023-09-19T14:44:41;24.30;54.80
19174;DHT22;9719;49.322;8.536;2023-09-19T14:49:43;23.80;55.80
19174;DHT22;9719;49.322;8.536;2023-09-19T14:54:45;23.60;56.70
19174;DHT22;9719;49.322;8.536;2023-09-19T14:59:48;23.50;57.80
19174;DHT22;9719;49.322;8.536;2023-09-19T15:04:49;23.60;56.90
19174;DHT22;9719;49.322;8.536;2023-09-19T15:09:51;23.60;57.00
19174;DHT22;9719;49.322;8.536;2023-09-19T15:14:54;23.30;56.80
19174;DHT22;9719;49.322;8.536;2023-09-19T15:19:56;23.40;56.60
19174;DHT22;9719;49.322;8.536;2023-09-19T15:24:58;23.20;58.40
19174;DHT22;9719;49.322;8.536;2023-09-19T15:30:02;23.10;59.50
19174;DHT22;9719;49.322;8.536;2023-09-19T15:35:05;23.10;59.40
19174;DHT22;9719;49.322;8.536;2023-09-19T15:40:10;23.10;60.90
19174;DHT22;9719;49.322;8.536;2023-09-19T15:45:15;22.90;60.90
19174;DHT22;9719;49.322;8.536;2023-09-19T15:50:19;22.80;61.80
19174;DHT22;9719;49.322;8.536;2023-09-19T15:55:21;22.90;62.40
19174;DHT22;9719;49.322;8.536;2023-09-19T16:00:24;22.60;61.80
19174;DHT22;9719;49.322;8.536;2023-09-19T16:05:26;22.90;63.30
19174;DHT22;9719;49.322;8.536;2023-09-19T16:10:28;22.90;62.30
19174;DHT22;9719;49.322;8.536;2023-09-19T16:15:31;22.80;63.30
19174;DHT22;9719;49.322;8.536;2023-09-19T16:20:33;22.80;63.00
19174;DHT22;9719;49.322;8.536;2023-09-19T16:25:37;22.80;63.50
19174;DHT22;9719;49.322;8.536;2023-09-19T16:30:40;22.80;64.10
19174;DHT22;9719;49.322;8.536;2023-09-19T16:35:42;22.60;64.00
19174;DHT22;9719;49.322;8.536;2023-09-19T16:40:51;22.60;64.70
19174;DHT22;9719;49.322;8.536;2023-09-19T16:45:54;22.40;65.50
19174;DHT22;9719;49.322;8.536;2023-09-19T16:51:00;22.40;65.80
19174;DHT22;9719;49.322;8.536;2023-09-19T16:56:05;22.40;65.70
19174;DHT22;9719;49.322;8.536;2023-09-19T17:01:11;22.10;66.20
19174;DHT22;9719;49.322;8.536;2023-09-19T17:06:14;22.00;66.60
19174;DHT22;9719;49.322;8.536;2023-09-19T17:11:18;21.80;67.20
19174;DHT22;9719;49.322;8.536;2023-09-19T17:16:22;21.60;68.10
19174;DHT22;9719;49.322;8.536;2023-09-19T17:21:26;21.50;69.00
19174;DHT22;9719;49.322;8.536;2023-09-19T17:26:27;21.30;69.80
19174;DHT22;9719;49.322;8.536;2023-09-19T17:31:31;21.10;70.50
19174;DHT22;9719;49.322;8.536;2023-09-19T17:36:33;21.10;71.10
19174;DHT22;9719;49.322;8.536;2023-09-19T17:41:36;21.00;71.40
19174;DHT22;9719;49.322;8.536;2023-09-19T17:46:39;20.80;71.60
19174;DHT22;9719;49.322;8.536;2023-09-19T17:51:40;20.70;71.90
19174;DHT22;9719;49.322;8.536;2023-09-19T17:56:42;20.70;72.40
19174;DHT22;9719;49.322;8.536;2023-09-19T18:01:45;20.60;72.80
19174;DHT22;9719;49.322;8.536;2023-09-19T18:06:48;20.50;73.50
19174;DHT22;9719;49.322;8.536;2023-09-19T18:11:50;20.40;73.80
19174;DHT22;9719;49.322;8.536;2023-09-19T18:16:53;20.20;74.10
19174;DHT22;9719;49.322;8.536;2023-09-19T18:21:58;20.20;75.80
19174;DHT22;9719;49.322;8.536;2023-09-19T18:27:04;19.90;77.30
19174;DHT22;9719;49.322;8.536;2023-09-19T18:32:07;19.70;78.00
19174;DHT22;9719;49.322;8.536;2023-09-19T18:37:09;19.50;78.60
19174;DHT22;9719;49.322;8.536;2023-09-19T18:42:11;19.30;80.10
19174;DHT22;9719;49.322;8.536;2023-09-19T18:47:15;18.80;81.70
19174;DHT22;9719;49.322;8.536;2023-09-19T18:52:16;18.70;82.30
19174;DHT22;9719;49.322;8.536;2023-09-19T18:57:18;18.70;83.20
19174;DHT22;9719;49.322;8.536;2023-09-19T19:02:22;18.50;83.60
19174;DHT22;9719;49.322;8.536;2023-09-19T19:07:24;18.40;84.30
19174;DHT22;9719;49.322;8.536;2023-09-19T19:12:26;18.40;85.30
19174;DHT22;9719;49.322;8.536;2023-09-19T19:17:29;18.20;85.40
19174;DHT22;9719;49.322;8.536;2023-09-19T19:22:31;18.10;86.80
19174;DHT22;9719;49.322;8.536;2023-09-19T19:27:32;18.10;87.10
19174;DHT22;9719;49.322;8.536;2023-09-19T19:32:37;18.10;87.40
19174;DHT22;9719;49.322;8.536;2023-09-19T19:37:39;18.00;87.90
19174;DHT22;9719;49.322;8.536;2023-09-19T19:42:41;18.10;88.50
19174;DHT22;9719;49.322;8.536;2023-09-19T19:47:44;18.00;89.00
19174;DHT22;9719;49.322;8.536;2023-09-19T19:52:50;18.00;90.00
19174;DHT22;9719;49.322;8.536;2023-09-19T19:57:53;18.00;90.80
19174;DHT22;9719;49.322;8.536;2023-09-19T20:02:56;17.90;91.50
19174;DHT22;9719;49.322;8.536;2023-09-19T20:07:58;17.60;92.40
19174;DHT22;9719;49.322;8.536;2023-09-19T20:13:00;17.50;93.30
19174;DHT22;9719;49.322;8.536;2023-09-19T20:18:09;17.30;93.80
19174;DHT22;9719;49.322;8.536;2023-09-19T20:23:12;17.30;94.30
19174;DHT22;9719;49.322;8.536;2023-09-19T20:28:14;17.60;93.00
19174;DHT22;9719;49.322;8.536;2023-09-19T20:33:18;17.70;92.40
19174;DHT22;9719;49.322;8.536;2023-09-19T20:38:20;17.70;92.30
19174;DHT22;9719;49.322;8.536;2023-09-19T20:43:23;17.70;93.30
19174;DHT22;9719;49.322;8.536;2023-09-19T20:48:26;17.80;94.30
19174;DHT22;9719;49.322;8.536;2023-09-19T20:53:28;17.60;94.80
19174;DHT22;9719;49.322;8.536;2023-09-19T20:58:31;17.60;94.90
19174;DHT22;9719;49.322;8.536;2023-09-19T21:03:36;17.60;94.90
19174;DHT22;9719;49.322;8.536;2023-09-19T21:08:41;17.50;94.30
19174;DHT22;9719;49.322;8.536;2023-09-19T21:13:44;17.60;95.50
19174;DHT22;9719;49.322;8.536;2023-09-19T21:18:49;17.70;95.60
19174;DHT22;9719;49.322;8.536;2023-09-19T21:23:51;17.50;96.00
19174;DHT22;9719;49.322;8.536;2023-09-19T21:28:53;17.40;96.60
19174;DHT22;9719;49.322;8.536;2023-09-19T21:33:57;17.40;96.60
19174;DHT22;9719;49.322;8.536;2023-09-19T21:38:59;17.30;96.70
19174;DHT22;9719;49.322;8.536;2023-09-19T21:44:00;17.40;96.40
19174;DHT22;9719;49.322;8.536;2023-09-19T21:49:04;17.30;96.20
19174;DHT22;9719;49.322;8.536;2023-09-19T21:54:06;17.40;95.80
19174;DHT22;9719;49.322;8.536;2023-09-19T21:59:07;17.50;96.60
19174;DHT22;9719;49.322;8.536;2023-09-19T22:04:10;17.30;96.90
19174;DHT22;9719;49.322;8.536;2023-09-19T22:09:12;17.30;97.90
19174;DHT22;9719;49.322;8.536;2023-09-19T22:14:13;17.00;98.60
19174;DHT22;9719;49.322;8.536;2023-09-19T22:19:16;17.10;99.30
19174;DHT22;9719;49.322;8.536;2023-09-19T22:24:18;17.10;99.00
19174;DHT22;9719;49.322;8.536;2023-09-19T22:29:21;17.10;98.40
19174;DHT22;9719;49.322;8.536;2023-09-19T22:34:25;17.00;98.30
19174;DHT22;9719;49.322;8.536;2023-09-19T22:39:27;17.00;98.40
19174;DHT22;9719;49.322;8.536;2023-09-19T22:44:29;17.20;98.30
19174;DHT22;9719;49.322;8.536;2023-09-19T22:49:34;17.30;98.20
19174;DHT22;9719;49.322;8.536;2023-09-19T22:54:38;17.40;97.90
19174;DHT22;9719;49.322;8.536;2023-09-19T22:59:41;17.40;97.90
19174;DHT22;9719;49.322;8.536;2023-09-19T23:04:44;17.30;98.00
19174;DHT22;9719;49.322;8.536;2023-09-19T23:09:46;17.40;97.90
19174;DHT22;9719;49.322;8.536;2023-09-19T23:14:48;17.30;98.10
19174;DHT22;9719;49.322;8.536;2023-09-19T23:19:51;17.40;98.30
19174;DHT22;9719;49.322;8.536;2023-09-19T23:24:56;17.30;98.40
19174;DHT22;9719;49.322;8.536;2023-09-19T23:30:12;17.20;98.60
19174;DHT22;9719;49.322;8.536;2023-09-19T23:35:18;17.20;98.90
19174;DHT22;9719;49.322;8.536;2023-09-19T23:40:22;17.10;98.60
19174;DHT22;9719;49.322;8.536;2023-09-19T23:45:27;17.20;98.40
19174;DHT22;9719;49.322;8.536;2023-09-19T23:50:31;17.20;98.30
19174;DHT22;9719;49.322;8.536;2023-09-19T23:55:35;17.20;98.20
